Time;durP1;ratioP1;P1;durP2;ratioP2;P2;SDS_P1;SDS_P2;PMS_P1;PMS_P2;Temp;Humidity;BMP_temperature;BMP_pressure;BME280_temperature;BME280_humidity;BME280_pressure;Samples;Min_cycle;Max_cycle;Signal;HPM_P1;HPM_P2
2021/07/25 00:01:41;;;;;;;13.03;11.83;;;;;;;;;;5033789;28;20644;-63
2021/07/25 00:04:06;;;;;;;13.27;12.20;;;;;;;;;;5033349;28;20535;-63
2021/07/25 00:06:31;;;;;;;14.23;12.97;;;;;;;;;;5033860;28;20218;-64
2021/07/25 00:08:57;;;;;;;14.40;13.00;;;;;;;;;;5034152;28;20296;-63
2021/07/25 00:11:22;;;;;;;12.77;11.60;;;;;;;;;;5033068;28;20650;-64
2021/07/25 00:13:51;;;;;;;12.67;11.57;;;;;;;;;;5033692;28;20359;-63
2021/07/25 00:16:17;;;;;;;12.53;11.53;;;;;;;;;;5033281;28;20217;-63
2021/07/25 00:18:42;;;;;;;13.37;12.27;;;;;;;;;;5033554;28;20854;-64
2021/07/25 00:21:07;;;;;;;13.80;12.60;;;;;;;;;;5033191;28;20233;-64
2021/07/25 00:23:32;;;;;;;15.17;13.53;;;;;;;;;;5033675;28;20308;-63
2021/07/25 00:26:00;;;;;;;13.77;12.60;;;;;;;;;;5033694;28;20221;-63
2021/07/25 00:28:32;;;;;;;13.83;12.43;;;;;;;;;;5033344;28;20239;-63
2021/07/25 00:31:00;;;;;;;15.03;12.43;;;;;;;;;;5033472;28;20464;-64
2021/07/25 00:33:26;;;;;;;14.40;13.10;;;;;;;;;;5033398;28;20468;-63
2021/07/25 00:35:51;;;;;;;14.17;12.97;;;;;;;;;;5033538;28;20460;-64
2021/07/25 00:38:16;;;;;;;12.87;11.77;;;;;;;;;;5033010;28;20222;-64
2021/07/25 00:40:43;;;;;;;14.30;13.00;;;;;;;;;;5033258;28;20332;-63
2021/07/25 00:43:08;;;;;;;13.47;12.37;;;;;;;;;;5033139;28;20221;-63
2021/07/25 00:45:34;;;;;;;13.10;12.00;;;;;;;;;;5033268;28;20773;-64
2021/07/25 00:48:00;;;;;;;14.77;13.37;;;;;;;;;;5033331;28;20214;-63
2021/07/25 00:50:25;;;;;;;12.90;11.80;;;;;;;;;;5034883;28;20229;-64
2021/07/25 00:52:51;;;;;;;13.87;12.67;;;;;;;;;;5037122;28;20218;-63
2021/07/25 00:55:19;;;;;;;13.40;12.40;;;;;;;;;;5036450;28;20645;-64
2021/07/25 00:57:45;;;;;;;13.20;12.00;;;;;;;;;;5036758;28;20263;-63
2021/07/25 01:00:11;;;;;;;13.67;12.43;;;;;;;;;;5036605;28;20460;-63
2021/07/25 01:02:44;;;;;;;13.37;12.27;;;;;;;;;;5036541;28;20218;-63
2021/07/25 01:05:13;;;;;;;13.97;12.67;;;;;;;;;;5035604;28;20217;-64
2021/07/25 01:07:51;;;;;;;13.53;12.23;;;;;;;;;;5036388;28;20783;-63
2021/07/25 01:10:23;;;;;;;12.87;11.70;;;;;;;;;;5035014;28;20471;-64
2021/07/25 01:12:56;;;;;;;14.43;13.03;;;;;;;;;;5035442;28;20808;-64
2021/07/25 01:15:24;;;;;;;14.20;13.03;;;;;;;;;;5036013;28;20490;-63
2021/07/25 01:17:49;;;;;;;13.07;11.90;;;;;;;;;;5051076;28;20482;-64
2021/07/25 01:20:14;;;;;;;13.57;12.40;;;;;;;;;;5055612;28;20463;-63
2021/07/25 01:22:43;;;;;;;13.87;12.70;;;;;;;;;;5056663;28;20205;-64
2021/07/25 01:25:11;;;;;;;13.00;11.87;;;;;;;;;;5056167;28;20213;-63
2021/07/25 01:28:04;;;;;;;14.00;12.80;;;;;;;;;;5054662;28;20535;-64
2021/07/25 01:30:32;;;;;;;14.97;13.67;;;;;;;;;;5055449;28;20464;-63
2021/07/25 01:33:09;;;;;;;13.10;12.00;;;;;;;;;;5056023;28;20460;-63
2021/07/25 01:35:34;;;;;;;13.73;12.43;;;;;;;;;;5055362;28;20932;-63
2021/07/25 01:38:00;;;;;;;13.57;12.40;;;;;;;;;;5052378;28;20462;-63
2021/07/25 01:40:26;;;;;;;14.13;12.93;;;;;;;;;;5059157;28;20271;-63
2021/07/25 01:42:52;;;;;;;13.67;12.47;;;;;;;;;;5061425;28;20551;-63
2021/07/25 01:45:18;;;;;;;13.93;12.67;;;;;;;;;;5060790;28;20971;-63
2021/07/25 01:47:43;;;;;;;14.60;13.30;;;;;;;;;;5056174;28;20475;-63
2021/07/25 01:50:09;;;;;;;15.30;13.93;;;;;;;;;;5054913;28;20696;-64
2021/07/25 01:52:35;;;;;;;15.30;13.67;;;;;;;;;;5055020;28;20209;-63
2021/07/25 01:55:01;;;;;;;15.53;14.07;;;;;;;;;;5054904;28;20467;-63
2021/07/25 01:57:26;;;;;;;13.87;12.57;;;;;;;;;;5054473;28;20240;-63
2021/07/25 01:59:51;;;;;;;15.07;13.70;;;;;;;;;;5055038;28;20938;-63
2021/07/25 02:02:17;;;;;;;15.17;13.77;;;;;;;;;;5054519;28;20300;-64
2021/07/25 02:04:42;;;;;;;15.63;14.23;;;;;;;;;;5054485;28;20213;-63
2021/07/25 02:07:07;;;;;;;14.80;13.47;;;;;;;;;;5055002;28;20271;-62
2021/07/25 02:09:36;;;;;;;15.00;13.40;;;;;;;;;;5053734;28;20225;-63
2021/07/25 02:12:03;;;;;;;13.50;12.30;;;;;;;;;;5054387;28;20559;-63
2021/07/25 02:14:28;;;;;;;13.70;12.53;;;;;;;;;;5054168;28;20466;-63
2021/07/25 02:16:53;;;;;;;13.97;12.77;;;;;;;;;;5055133;28;20930;-63
2021/07/25 02:19:19;;;;;;;15.00;13.60;;;;;;;;;;5053747;28;20296;-62
2021/07/25 02:21:44;;;;;;;14.57;13.27;;;;;;;;;;5052504;28;20220;-62
2021/07/25 02:24:09;;;;;;;12.60;11.47;;;;;;;;;;5054447;28;20712;-63
2021/07/25 02:26:35;;;;;;;13.60;12.40;;;;;;;;;;5054220;28;20220;-63
2021/07/25 02:29:00;;;;;;;13.63;12.53;;;;;;;;;;5053928;28;20240;-63
2021/07/25 02:31:25;;;;;;;16.13;14.63;;;;;;;;;;5054187;28;20244;-63
2021/07/25 02:33:50;;;;;;;13.67;12.37;;;;;;;;;;5054717;28;20292;-63
2021/07/25 02:36:16;;;;;;;13.80;12.60;;;;;;;;;;5053235;28;20675;-64
2021/07/25 02:38:41;;;;;;;14.07;12.77;;;;;;;;;;5054373;28;20232;-64
2021/07/25 02:41:06;;;;;;;13.60;12.17;;;;;;;;;;5054479;28;20290;-63
2021/07/25 02:43:31;;;;;;;13.83;12.50;;;;;;;;;;5053499;28;20213;-63
2021/07/25 02:45:58;;;;;;;14.47;13.00;;;;;;;;;;5054069;28;20636;-63
2021/07/25 02:48:23;;;;;;;14.67;12.50;;;;;;;;;;5053972;28;20225;-63
2021/07/25 02:50:48;;;;;;;14.17;12.90;;;;;;;;;;5053843;28;20582;-63
2021/07/25 02:53:14;;;;;;;13.40;12.20;;;;;;;;;;5053765;28;20255;-63
2021/07/25 02:55:39;;;;;;;13.73;12.53;;;;;;;;;;5053854;28;20228;-63
2021/07/25 02:58:04;;;;;;;13.53;12.33;;;;;;;;;;5054038;28;20220;-63
2021/07/25 03:00:29;;;;;;;13.40;12.20;;;;;;;;;;5053055;28;20296;-63
2021/07/25 03:02:56;;;;;;;14.10;12.90;;;;;;;;;;5054216;28;20560;-63
2021/07/25 03:05:22;;;;;;;13.80;12.70;;;;;;;;;;5052814;28;20660;-62
2021/07/25 03:07:48;;;;;;;14.23;12.90;;;;;;;;;;5053564;28;20539;-62
2021/07/25 03:10:13;;;;;;;14.27;13.00;;;;;;;;;;5052686;28;20613;-63
2021/07/25 03:12:38;;;;;;;13.97;12.67;;;;;;;;;;5052776;28;20221;-63
2021/07/25 03:15:04;;;;;;;14.53;13.33;;;;;;;;;;5053450;28;20296;-63
2021/07/25 03:17:29;;;;;;;15.10;13.73;;;;;;;;;;5053000;28;20278;-64
2021/07/25 03:19:55;;;;;;;14.27;12.73;;;;;;;;;;5053752;28;20829;-63
2021/07/25 03:22:22;;;;;;;14.30;12.37;;;;;;;;;;5053237;28;20304;-63
2021/07/25 03:24:47;;;;;;;15.10;13.73;;;;;;;;;;5051855;28;20618;-63
2021/07/25 03:27:12;;;;;;;14.40;13.10;;;;;;;;;;5053543;28;20470;-64
2021/07/25 03:29:38;;;;;;;16.90;13.93;;;;;;;;;;5052902;28;20606;-63
2021/07/25 03:32:03;;;;;;;13.70;12.27;;;;;;;;;;5053047;28;20220;-63
2021/07/25 03:34:32;;;;;;;13.67;12.47;;;;;;;;;;5052943;28;20530;-63
2021/07/25 03:36:57;;;;;;;15.23;13.73;;;;;;;;;;5053772;28;20221;-63
2021/07/25 03:39:23;;;;;;;13.37;12.27;;;;;;;;;;5052628;28;20469;-63
2021/07/25 03:41:50;;;;;;;14.20;12.80;;;;;;;;;;5052392;28;20540;-64
2021/07/25 03:44:15;;;;;;;15.30;13.90;;;;;;;;;;5053555;28;20455;-64
2021/07/25 03:46:41;;;;;;;15.00;13.53;;;;;;;;;;5057406;28;20530;-63
2021/07/25 03:49:07;;;;;;;14.37;13.07;;;;;;;;;;5052821;28;20220;-63
2021/07/25 03:51:32;;;;;;;15.60;12.83;;;;;;;;;;5052257;28;20209;-63
2021/07/25 03:53:58;;;;;;;15.40;13.90;;;;;;;;;;5053200;28;20471;-63
2021/07/25 03:56:23;;;;;;;14.80;13.50;;;;;;;;;;5052585;28;20213;-64
2021/07/25 03:58:49;;;;;;;14.80;13.50;;;;;;;;;;5053335;28;20291;-63
2021/07/25 04:01:14;;;;;;;14.50;13.07;;;;;;;;;;5053705;28;20213;-63
2021/07/25 04:03:39;;;;;;;14.20;12.30;;;;;;;;;;5052403;28;20233;-63
2021/07/25 04:06:05;;;;;;;13.77;12.40;;;;;;;;;;5053050;28;20623;-63
2021/07/25 04:08:30;;;;;;;14.67;13.33;;;;;;;;;;5053135;28;20249;-62
2021/07/25 04:10:56;;;;;;;13.60;12.50;;;;;;;;;;5053014;28;20279;-64
2021/07/25 04:13:21;;;;;;;14.83;13.50;;;;;;;;;;5052283;28;20229;-63
2021/07/25 04:15:47;;;;;;;15.53;13.87;;;;;;;;;;5053562;28;20221;-63
2021/07/25 04:18:12;;;;;;;16.00;14.00;;;;;;;;;;5053285;28;20292;-64
2021/07/25 04:20:37;;;;;;;15.03;13.47;;;;;;;;;;5052193;28;20300;-63
2021/07/25 04:23:03;;;;;;;16.13;14.00;;;;;;;;;;5053164;28;20217;-63
2021/07/25 04:25:30;;;;;;;14.30;13.10;;;;;;;;;;5056944;28;20213;-63
2021/07/25 04:27:57;;;;;;;16.97;13.50;;;;;;;;;;5056529;28;20209;-64
2021/07/25 04:30:23;;;;;;;15.37;13.97;;;;;;;;;;5055141;28;20483;-64
2021/07/25 04:32:49;;;;;;;14.13;12.63;;;;;;;;;;5057006;28;20455;-63
2021/07/25 04:35:16;;;;;;;13.47;12.27;;;;;;;;;;5056433;28;20462;-64
2021/07/25 04:37:48;;;;;;;14.40;12.97;;;;;;;;;;5056125;28;20220;-64
2021/07/25 04:40:15;;;;;;;15.27;13.67;;;;;;;;;;5056899;28;20814;-64
2021/07/25 04:42:52;;;;;;;15.23;12.93;;;;;;;;;;5055915;28;20535;-63
2021/07/25 04:45:51;;;;;;;14.97;13.57;;;;;;;;;;5056188;28;20452;-63
2021/07/25 04:48:21;;;;;;;13.83;12.63;;;;;;;;;;5065615;28;20804;-63
2021/07/25 04:50:51;;;;;;;15.10;13.53;;;;;;;;;;5068627;28;20455;-63
2021/07/25 04:53:22;;;;;;;14.00;12.90;;;;;;;;;;5055441;28;20501;-64
2021/07/25 04:55:55;;;;;;;14.10;12.90;;;;;;;;;;5055693;28;20471;-63
2021/07/25 04:58:21;;;;;;;14.63;13.23;;;;;;;;;;5055948;28;20586;-63
2021/07/25 05:00:50;;;;;;;14.10;12.77;;;;;;;;;;5054766;28;20459;-63
2021/07/25 05:03:15;;;;;;;13.97;12.57;;;;;;;;;;5056186;28;20455;-63
2021/07/25 05:05:40;;;;;;;15.30;13.97;;;;;;;;;;5056582;28;20943;-64
2021/07/25 05:08:06;;;;;;;14.27;13.07;;;;;;;;;;5055343;28;20234;-64
2021/07/25 05:10:31;;;;;;;16.27;13.37;;;;;;;;;;5054942;28;20676;-64
2021/07/25 05:13:07;;;;;;;14.43;12.50;;;;;;;;;;5055996;28;20302;-63
2021/07/25 05:15:35;;;;;;;14.40;12.93;;;;;;;;;;5054854;28;20270;-64
2021/07/25 05:18:07;;;;;;;13.93;12.53;;;;;;;;;;5055743;28;20456;-67
2021/07/25 05:20:43;;;;;;;15.93;14.50;;;;;;;;;;5055588;28;20440;-66
2021/07/25 05:23:21;;;;;;;15.93;14.33;;;;;;;;;;5054215;28;20907;-66
2021/07/25 05:25:50;;;;;;;15.37;13.73;;;;;;;;;;5055673;28;20481;-66
2021/07/25 05:28:18;;;;;;;15.40;14.10;;;;;;;;;;5055749;28;20474;-66
2021/07/25 05:30:44;;;;;;;14.23;12.93;;;;;;;;;;5055229;28;20456;-66
2021/07/25 05:33:10;;;;;;;15.87;14.47;;;;;;;;;;5054832;28;20513;-67
2021/07/25 05:35:36;;;;;;;15.80;14.30;;;;;;;;;;5051898;28;20225;-65
2021/07/25 05:38:02;;;;;;;16.33;14.73;;;;;;;;;;5054900;28;21108;-64
2021/07/25 05:40:27;;;;;;;15.27;13.83;;;;;;;;;;5054611;28;20680;-65
2021/07/25 05:42:52;;;;;;;14.63;13.43;;;;;;;;;;5058345;28;20502;-64
2021/07/25 05:45:18;;;;;;;14.13;12.87;;;;;;;;;;5067310;28;20333;-65
2021/07/25 05:47:43;;;;;;;16.93;14.40;;;;;;;;;;5060313;28;20213;-65
2021/07/25 05:50:09;;;;;;;14.77;13.23;;;;;;;;;;5056671;28;20304;-64
2021/07/25 05:52:44;;;;;;;15.37;14.00;;;;;;;;;;5063889;28;20267;-64
2021/07/25 05:55:10;;;;;;;13.53;12.27;;;;;;;;;;5057961;28;20474;-66
2021/07/25 05:57:36;;;;;;;15.60;14.17;;;;;;;;;;5055680;28;20444;-65
2021/07/25 06:00:01;;;;;;;15.57;14.07;;;;;;;;;;5068441;28;20875;-65
2021/07/25 06:02:28;;;;;;;15.03;13.63;;;;;;;;;;5059613;28;20209;-64
2021/07/25 06:04:53;;;;;;;13.30;12.13;;;;;;;;;;5056974;28;20255;-65
2021/07/25 06:07:18;;;;;;;14.53;13.13;;;;;;;;;;5054722;28;20488;-65
2021/07/25 06:09:43;;;;;;;14.60;13.20;;;;;;;;;;5052444;28;20236;-66
2021/07/25 06:12:10;;;;;;;15.87;14.37;;;;;;;;;;5054829;28;20228;-65
2021/07/25 06:14:35;;;;;;;13.70;12.60;;;;;;;;;;5054954;28;20221;-63
2021/07/25 06:17:00;;;;;;;16.73;14.93;;;;;;;;;;5063494;28;20466;-61
2021/07/25 06:19:25;;;;;;;18.83;14.50;;;;;;;;;;5058365;28;20308;-76
2021/07/25 06:21:51;;;;;;;15.00;13.47;;;;;;;;;;5054331;28;20221;-68
2021/07/25 06:24:16;;;;;;;14.50;13.20;;;;;;;;;;5066480;28;20625;-63
2021/07/25 06:26:42;;;;;;;13.63;12.53;;;;;;;;;;5055177;28;20224;-64
2021/07/25 06:29:07;;;;;;;14.93;13.63;;;;;;;;;;5055459;28;20217;-64
2021/07/25 06:31:32;;;;;;;15.80;13.47;;;;;;;;;;5066390;28;20294;-64
2021/07/25 06:33:57;;;;;;;15.70;14.40;;;;;;;;;;5067715;28;20239;-64
2021/07/25 06:36:24;;;;;;;15.50;13.60;;;;;;;;;;5050399;28;20312;-64
2021/07/25 06:38:49;;;;;;;14.43;13.20;;;;;;;;;;5056100;28;20213;-65
2021/07/25 06:41:15;;;;;;;15.27;13.77;;;;;;;;;;5065769;28;20477;-63
2021/07/25 06:43:40;;;;;;;17.60;15.33;;;;;;;;;;5055770;28;20227;-64
2021/07/25 06:46:07;;;;;;;14.87;13.60;;;;;;;;;;5054998;28;20720;-65
2021/07/25 06:48:33;;;;;;;14.93;13.73;;;;;;;;;;5067345;28;20250;-64
2021/07/25 06:51:00;;;;;;;17.37;14.53;;;;;;;;;;5056446;28;20959;-64
2021/07/25 06:53:28;;;;;;;18.10;16.53;;;;;;;;;;5053280;28;20228;-64
2021/07/25 06:55:54;;;;;;;26.57;24.07;;;;;;;;;;5066352;28;20798;-64
2021/07/25 06:58:20;;;;;;;19.90;18.03;;;;;;;;;;5055113;28;20535;-64
2021/07/25 07:00:45;;;;;;;17.53;15.93;;;;;;;;;;5053428;28;20548;-63
2021/07/25 07:03:10;;;;;;;16.17;14.67;;;;;;;;;;5067136;28;20923;-63
2021/07/25 07:05:36;;;;;;;15.47;14.00;;;;;;;;;;5048017;28;20231;-64
2021/07/25 07:08:03;;;;;;;16.83;15.27;;;;;;;;;;5054913;28;20251;-64
2021/07/25 07:10:33;;;;;;;19.77;17.93;;;;;;;;;;5041954;28;20614;-65
2021/07/25 07:13:02;;;;;;;17.37;15.70;;;;;;;;;;5066358;28;20467;-65
2021/07/25 07:15:27;;;;;;;15.83;14.30;;;;;;;;;;5052658;28;20474;-63
2021/07/25 07:17:56;;;;;;;16.47;14.70;;;;;;;;;;5055275;28;20466;-65
2021/07/25 07:20:21;;;;;;;15.43;13.90;;;;;;;;;;5060154;28;20482;-64
2021/07/25 07:22:58;;;;;;;18.17;16.57;;;;;;;;;;5041294;28;20542;-64
2021/07/25 07:25:28;;;;;;;16.77;15.27;;;;;;;;;;5056849;28;20224;-64
2021/07/25 07:27:54;;;;;;;15.17;13.87;;;;;;;;;;5062438;28;20489;-64
2021/07/25 07:30:19;;;;;;;18.83;17.17;;;;;;;;;;5059683;28;20931;-64
2021/07/25 07:32:45;;;;;;;16.13;14.40;;;;;;;;;;5055302;28;20603;-63
2021/07/25 07:35:11;;;;;;;15.73;14.33;;;;;;;;;;5066765;28;20547;-65
2021/07/25 07:37:36;;;;;;;14.60;13.23;;;;;;;;;;5041508;28;20230;-65
2021/07/25 07:40:03;;;;;;;15.40;13.90;;;;;;;;;;5054871;28;20556;-65
2021/07/25 07:42:28;;;;;;;15.10;13.90;;;;;;;;;;5053981;28;20295;-64
2021/07/25 07:44:54;;;;;;;13.90;12.83;;;;;;;;;;5065301;28;20974;-64
2021/07/25 07:47:19;;;;;;;15.00;13.80;;;;;;;;;;5056615;28;20305;-64
2021/07/25 07:49:44;;;;;;;14.50;13.30;;;;;;;;;;5053078;28;20320;-65
2021/07/25 07:52:09;;;;;;;13.90;12.73;;;;;;;;;;5066722;28;20303;-64
2021/07/25 07:54:35;;;;;;;18.00;16.43;;;;;;;;;;5052752;28;20234;-65
2021/07/25 07:57:00;;;;;;;15.37;13.97;;;;;;;;;;5052981;28;20217;-65
2021/07/25 07:59:26;;;;;;;21.17;19.27;;;;;;;;;;5062780;28;20246;-64
2021/07/25 08:01:52;;;;;;;16.17;14.47;;;;;;;;;;5063884;28;20235;-64
2021/07/25 08:04:17;;;;;;;16.13;14.40;;;;;;;;;;5055799;28;20296;-64
2021/07/25 08:06:42;;;;;;;14.43;13.27;;;;;;;;;;5052843;28;20636;-63
2021/07/25 08:09:07;;;;;;;14.97;13.77;;;;;;;;;;5057761;28;20221;-64
2021/07/25 08:11:33;;;;;;;21.60;19.67;;;;;;;;;;5061126;28;20533;-64
2021/07/25 08:13:58;;;;;;;21.73;19.87;;;;;;;;;;5062799;28;20281;-64
2021/07/25 08:16:24;;;;;;;17.00;15.57;;;;;;;;;;5064022;28;20233;-64
2021/07/25 08:18:49;;;;;;;14.33;13.00;;;;;;;;;;5068129;28;20224;-64
2021/07/25 08:21:14;;;;;;;17.20;15.80;;;;;;;;;;5059791;28;20240;-64
2021/07/25 08:23:39;;;;;;;17.80;16.17;;;;;;;;;;5062370;28;20315;-64
2021/07/25 08:26:05;;;;;;;20.07;18.37;;;;;;;;;;5064840;28;20221;-64
2021/07/25 08:28:30;;;;;;;19.47;17.70;;;;;;;;;;5058903;28;20217;-63
2021/07/25 08:30:56;;;;;;;23.23;21.20;;;;;;;;;;5067611;28;20231;-64
2021/07/25 08:33:21;;;;;;;17.83;16.10;;;;;;;;;;5062141;28;20224;-63
2021/07/25 08:35:47;;;;;;;17.43;15.90;;;;;;;;;;5059972;28;20305;-64
2021/07/25 08:38:13;;;;;;;15.30;14.00;;;;;;;;;;5060310;28;20311;-64
2021/07/25 08:40:40;;;;;;;16.97;15.67;;;;;;;;;;5062359;28;20318;-64
2021/07/25 08:43:12;;;;;;;16.50;15.20;;;;;;;;;;5049810;28;20455;-65
2021/07/25 08:45:39;;;;;;;19.20;17.60;;;;;;;;;;5057736;28;20509;-63
2021/07/25 08:48:11;;;;;;;15.70;14.30;;;;;;;;;;5067826;28;20477;-66
2021/07/25 08:50:44;;;;;;;24.17;22.10;;;;;;;;;;5061415;28;20460;-65
2021/07/25 08:53:18;;;;;;;18.40;16.73;;;;;;;;;;5050992;28;20585;-65
2021/07/25 08:55:44;;;;;;;18.93;17.33;;;;;;;;;;5069622;28;20455;-64
2021/07/25 08:58:11;;;;;;;19.63;17.83;;;;;;;;;;5063376;28;20463;-65
2021/07/25 09:00:36;;;;;;;15.67;14.27;;;;;;;;;;5058122;28;20467;-64
2021/07/25 09:03:06;;;;;;;19.80;18.27;;;;;;;;;;5057878;28;20469;-66
2021/07/25 09:05:32;;;;;;;53.30;48.40;;;;;;;;;;5068504;28;20225;-65
2021/07/25 09:07:57;;;;;;;52.57;47.57;;;;;;;;;;5060356;28;20482;-65
2021/07/25 09:10:23;;;;;;;19.77;18.00;;;;;;;;;;5057094;28;20228;-64
2021/07/25 09:12:49;;;;;;;30.20;27.37;;;;;;;;;;5066349;28;20313;-64
2021/07/25 09:15:18;;;;;;;85.93;77.03;;;;;;;;;;5060619;28;20235;-64
2021/07/25 09:17:43;;;;;;;96.87;87.53;;;;;;;;;;5058048;28;20460;-65
2021/07/25 09:20:11;;;;;;;100.47;90.20;;;;;;;;;;5059324;28;20474;-64
2021/07/25 09:22:41;;;;;;;67.80;61.50;;;;;;;;;;5064961;28;20228;-63
2021/07/25 09:25:07;;;;;;;84.20;76.10;;;;;;;;;;5057109;28;20554;-64
2021/07/25 09:27:32;;;;;;;40.27;36.57;;;;;;;;;;5066586;28;20491;-64
2021/07/25 09:30:14;;;;;;;116.83;105.80;;;;;;;;;;5061335;28;20228;-65
2021/07/25 09:32:40;;;;;;;49.87;44.83;;;;;;;;;;5054801;28;20217;-65
2021/07/25 09:35:22;;;;;;;84.53;76.90;;;;;;;;;;5056174;28;20467;-64
2021/07/25 09:37:49;;;;;;;112.13;101.43;;;;;;;;;;5045039;28;20546;-65
2021/07/25 09:40:14;;;;;;;87.37;79.00;;;;;;;;;;5055066;28;20464;-65
2021/07/25 09:42:39;;;;;;;62.17;56.33;;;;;;;;;;5056353;28;20475;-65
2021/07/25 09:45:05;;;;;;;37.53;33.90;;;;;;;;;;5062352;28;20228;-65
2021/07/25 09:47:36;;;;;;;79.33;71.63;;;;;;;;;;5059077;28;20216;-65
2021/07/25 09:50:03;;;;;;;74.53;67.33;;;;;;;;;;5055099;28;20542;-66
2021/07/25 09:52:29;;;;;;;63.20;57.43;;;;;;;;;;5068292;28;20494;-65
2021/07/25 09:54:56;;;;;;;54.07;48.97;;;;;;;;;;5054946;28;20467;-65
2021/07/25 09:57:24;;;;;;;69.13;62.47;;;;;;;;;;5054925;28;20475;-66
2021/07/25 09:59:50;;;;;;;58.90;53.13;;;;;;;;;;5065136;28;20479;-65
2021/07/25 10:02:31;;;;;;;91.50;83.00;;;;;;;;;;5057834;28;20485;-65
2021/07/25 10:05:07;;;;;;;74.03;67.13;;;;;;;;;;5054226;28;20815;-66
2021/07/25 10:07:34;;;;;;;54.13;48.63;;;;;;;;;;5048292;28;20512;-65
2021/07/25 10:10:00;;;;;;;58.23;52.80;;;;;;;;;;5066210;28;20462;-65
2021/07/25 10:12:28;;;;;;;58.83;53.47;;;;;;;;;;5057569;28;20526;-66
2021/07/25 10:14:53;;;;;;;70.57;63.70;;;;;;;;;;5054401;28;20889;-66
2021/07/25 10:17:18;;;;;;;38.90;35.17;;;;;;;;;;5065143;28;20559;-66
2021/07/25 10:19:45;;;;;;;48.27;43.60;;;;;;;;;;5052946;28;20240;-66
2021/07/25 10:22:13;;;;;;;41.53;37.23;;;;;;;;;;5059134;28;20717;-66
2021/07/25 10:24:39;;;;;;;26.30;23.80;;;;;;;;;;5061623;28;20514;-65
2021/07/25 10:27:05;;;;;;;34.70;31.57;;;;;;;;;;5059131;28;20463;-65
2021/07/25 10:29:31;;;;;;;71.47;64.83;;;;;;;;;;5055201;28;20470;-65
2021/07/25 10:31:56;;;;;;;38.93;35.37;;;;;;;;;;5059279;28;20285;-64
2021/07/25 10:34:22;;;;;;;46.93;42.63;;;;;;;;;;5061499;28;20565;-64
2021/07/25 10:36:51;;;;;;;45.40;41.30;;;;;;;;;;5051869;28;20217;-64
2021/07/25 10:39:17;;;;;;;29.87;27.07;;;;;;;;;;5067551;28;20220;-65
2021/07/25 10:41:47;;;;;;;45.87;41.70;;;;;;;;;;5062640;28;20536;-64
2021/07/25 10:44:15;;;;;;;41.37;37.37;;;;;;;;;;5055679;28;20791;-64
2021/07/25 10:46:40;;;;;;;40.37;36.50;;;;;;;;;;5058234;28;20460;-64
2021/07/25 10:49:09;;;;;;;38.30;35.00;;;;;;;;;;5067494;28;21767;-65
2021/07/25 10:51:35;;;;;;;40.23;36.60;;;;;;;;;;5055514;28;20285;-65
2021/07/25 10:54:19;;;;;;;40.50;37.03;;;;;;;;;;5053678;28;20444;-65
2021/07/25 10:57:04;;;;;;;34.63;31.37;;;;;;;;;;5066164;28;20491;-65
2021/07/25 10:59:44;;;;;;;30.57;27.73;;;;;;;;;;5047973;28;20467;-64
2021/07/25 11:02:23;;;;;;;39.70;36.03;;;;;;;;;;5056169;28;20465;-64
2021/07/25 11:04:48;;;;;;;33.50;30.63;;;;;;;;;;5061847;28;20452;-64
2021/07/25 11:07:22;;;;;;;37.27;33.97;;;;;;;;;;5061066;28;20465;-64
2021/07/25 11:10:10;;;;;;;37.63;34.43;;;;;;;;;;5058233;28;20225;-63
2021/07/25 11:12:47;;;;;;;26.87;24.53;;;;;;;;;;5063926;28;20463;-64
2021/07/25 11:15:28;;;;;;;28.60;26.23;;;;;;;;;;5059526;28;20457;-65
2021/07/25 11:17:54;;;;;;;28.53;25.90;;;;;;;;;;5053255;28;20904;-64
2021/07/25 11:20:36;;;;;;;25.17;22.97;;;;;;;;;;5047538;28;20462;-65
2021/07/25 11:23:03;;;;;;;29.43;27.00;;;;;;;;;;5058697;28;20447;-65
2021/07/25 11:25:35;;;;;;;26.97;24.70;;;;;;;;;;5054879;28;20455;-65
2021/07/25 11:28:01;;;;;;;20.53;18.83;;;;;;;;;;5066989;28;20476;-65
2021/07/25 11:30:55;;;;;;;24.00;21.90;;;;;;;;;;5058919;28;20456;-65
2021/07/25 11:33:43;;;;;;;21.37;19.67;;;;;;;;;;5051523;28;21014;-65
2021/07/25 11:36:09;;;;;;;24.23;22.17;;;;;;;;;;5050396;28;20487;-64
2021/07/25 11:38:36;;;;;;;21.67;19.67;;;;;;;;;;5061095;28;20446;-65
2021/07/25 11:41:02;;;;;;;21.67;19.90;;;;;;;;;;5060086;28;20467;-64
2021/07/25 11:43:53;;;;;;;18.93;17.43;;;;;;;;;;5067646;28;20469;-64
2021/07/25 11:46:29;;;;;;;21.67;19.90;;;;;;;;;;5059664;28;20447;-65
2021/07/25 11:49:02;;;;;;;18.13;16.50;;;;;;;;;;5060954;28;20444;-65
2021/07/25 11:51:28;;;;;;;19.47;17.77;;;;;;;;;;5065670;28;20459;-65
2021/07/25 11:53:54;;;;;;;16.80;15.40;;;;;;;;;;5068926;28;20969;-65
2021/07/25 11:56:19;;;;;;;18.53;17.17;;;;;;;;;;5064143;28;20228;-65
2021/07/25 11:59:06;;;;;;;17.30;15.60;;;;;;;;;;5062135;28;20455;-65
2021/07/25 12:01:33;;;;;;;16.60;15.30;;;;;;;;;;5064376;28;20216;-66
2021/07/25 12:04:00;;;;;;;15.00;14.00;;;;;;;;;;5069535;28;20455;-66
2021/07/25 12:06:26;;;;;;;15.50;14.10;;;;;;;;;;5068153;28;20458;-65
2021/07/25 12:09:08;;;;;;;16.80;15.50;;;;;;;;;;5063910;28;20976;-65
2021/07/25 12:11:34;;;;;;;15.87;14.73;;;;;;;;;;5063802;28;20220;-65
2021/07/25 12:14:00;;;;;;;15.80;14.40;;;;;;;;;;5069600;28;20451;-66
2021/07/25 12:16:25;;;;;;;14.63;13.53;;;;;;;;;;5070116;28;20804;-65
2021/07/25 12:18:50;;;;;;;16.87;15.57;;;;;;;;;;5063696;28;20216;-65
2021/07/25 12:21:32;;;;;;;15.57;14.57;;;;;;;;;;5062411;28;20324;-65
2021/07/25 12:24:00;;;;;;;13.27;12.37;;;;;;;;;;5066627;28;20253;-65
2021/07/25 12:26:39;;;;;;;13.90;12.87;;;;;;;;;;5071329;28;20922;-66
2021/07/25 12:29:42;;;;;;;14.13;13.13;;;;;;;;;;5067056;28;20219;-66
2021/07/25 12:32:31;;;;;;;14.07;12.98;;;;;;;;;;5050721;28;20264;-65
2021/07/25 12:35:08;;;;;;;12.55;11.65;;;;;;;;;;5062532;28;20672;-65
2021/07/25 12:37:33;;;;;;;14.38;13.23;;;;;;;;;;5050552;28;20694;-65
2021/07/25 12:40:04;;;;;;;14.70;13.60;;;;;;;;;;5069174;28;20237;-65
2021/07/25 12:42:43;;;;;;;14.60;13.70;;;;;;;;;;5071571;28;20246;-65
2021/07/25 12:45:31;;;;;;;15.40;13.60;;;;;;;;;;5065320;28;20254;-65
2021/07/25 12:48:20;;;;;;;13.97;13.07;;;;;;;;;;5052626;28;20454;-65
2021/07/25 12:51:00;;;;;;;12.93;11.97;;;;;;;;;;5065820;28;20592;-65
2021/07/25 12:53:34;;;;;;;15.13;14.02;;;;;;;;;;5071700;28;20611;-64
2021/07/25 12:56:00;;;;;;;14.25;13.13;;;;;;;;;;5074956;28;20231;-65
2021/07/25 12:58:31;;;;;;;11.48;10.48;;;;;;;;;;5071748;28;20245;-65
2021/07/25 13:03:45;;;;;;;13.23;12.32;;;;;;;;;;5069946;28;20595;-66
2021/07/25 13:06:15;;;;;;;12.68;11.77;;;;;;;;;;5055922;28;20285;-64
2021/07/25 13:08:41;;;;;;;15.98;14.80;;;;;;;;;;5082790;28;20227;-65
2021/07/25 13:11:07;;;;;;;14.00;13.00;;;;;;;;;;5081940;28;20302;-65
2021/07/25 13:13:32;;;;;;;13.07;12.27;;;;;;;;;;5067246;28;20530;-65
2021/07/25 13:15:58;;;;;;;14.35;13.43;;;;;;;;;;5070892;28;20228;-65
2021/07/25 13:18:23;;;;;;;13.25;12.25;;;;;;;;;;5073967;28;20227;-65
2021/07/25 13:20:48;;;;;;;12.60;11.70;;;;;;;;;;5071140;28;20244;-65
2021/07/25 13:23:14;;;;;;;13.70;12.60;;;;;;;;;;5067212;28;20570;-65
2021/07/25 13:25:39;;;;;;;12.70;11.50;;;;;;;;;;5070679;28;20689;-66
2021/07/25 13:28:04;;;;;;;12.63;11.73;;;;;;;;;;5073360;28;20212;-65
2021/07/25 13:30:30;;;;;;;14.40;13.30;;;;;;;;;;5069600;28;20224;-65
2021/07/25 13:32:55;;;;;;;13.70;12.70;;;;;;;;;;5066394;28;20219;-64
2021/07/25 13:35:20;;;;;;;15.07;13.87;;;;;;;;;;5069862;28;20285;-65
2021/07/25 13:37:45;;;;;;;14.53;13.43;;;;;;;;;;5060455;28;20227;-65
2021/07/25 13:40:11;;;;;;;15.93;14.87;;;;;;;;;;5066442;28;20546;-64
2021/07/25 13:42:36;;;;;;;14.93;13.80;;;;;;;;;;5071119;28;20220;-65
2021/07/25 13:45:08;;;;;;;14.00;13.10;;;;;;;;;;5050714;28;20565;-65
2021/07/25 13:47:33;;;;;;;15.13;13.90;;;;;;;;;;5052597;28;20245;-64
2021/07/25 13:49:59;;;;;;;16.47;15.23;;;;;;;;;;5053237;28;20555;-65
2021/07/25 13:52:24;;;;;;;15.07;14.03;;;;;;;;;;5053421;28;20212;-65
2021/07/25 13:54:49;;;;;;;16.00;14.70;;;;;;;;;;5058141;28;20235;-66
2021/07/25 13:57:15;;;;;;;15.93;14.60;;;;;;;;;;5050135;28;20235;-66
2021/07/25 13:59:40;;;;;;;15.13;14.03;;;;;;;;;;5055866;28;20296;-64
2021/07/25 14:02:05;;;;;;;15.33;14.13;;;;;;;;;;5063970;28;20542;-65
2021/07/25 14:04:30;;;;;;;16.17;14.67;;;;;;;;;;5058028;28;20221;-65
2021/07/25 14:06:56;;;;;;;15.07;13.83;;;;;;;;;;5062394;28;20235;-65
2021/07/25 14:09:21;;;;;;;16.00;14.53;;;;;;;;;;5065547;28;20617;-65
2021/07/25 14:11:46;;;;;;;16.77;15.43;;;;;;;;;;5054989;28;20225;-64
2021/07/25 14:14:18;;;;;;;15.03;13.60;;;;;;;;;;5064009;28;20612;-64
2021/07/25 14:16:43;;;;;;;15.57;14.20;;;;;;;;;;5061841;28;20224;-65
2021/07/25 14:19:08;;;;;;;15.97;14.47;;;;;;;;;;5057078;28;20907;-65
2021/07/25 14:21:33;;;;;;;15.93;14.57;;;;;;;;;;5058808;28;20216;-64
2021/07/25 14:23:59;;;;;;;15.60;14.20;;;;;;;;;;5073078;28;20755;-64